Time;durP1;ratioP1;P1;durP2;ratioP2;P2;SDS_P1;SDS_P2;PMS_P1;PMS_P2;Temp;Humidity;BMP_temperature;BMP_pressure;BME280_temperature;BME280_humidity;BME280_pressure;Samples;Min_cycle;Max_cycle;Signal;HPM_P1;HPM_P2
2022/01/15 00:00:58;;;;;;;15.40;7.88;;;;;;;4.80;59.28;95263.31;4927375;29;20043;-80
2022/01/15 00:03:23;;;;;;;17.80;7.72;;;;;;;4.85;59.47;95254.22;4924229;29;20036;-80
2022/01/15 00:05:49;;;;;;;14.07;7.65;;;;;;;4.83;59.89;95252.63;4918954;29;20043;-81
2022/01/15 00:08:14;;;;;;;13.38;6.07;;;;;;;4.85;59.61;95249.88;4919706;29;20048;-80
2022/01/15 00:10:49;;;;;;;13.90;7.22;;;;;;;4.83;60.19;95262.94;4936071;23;20056;-80
2022/01/15 00:13:24;;;;;;;16.38;7.60;;;;;;;4.79;59.87;95261.72;4929214;29;20044;-80
2022/01/15 00:16:01;;;;;;;17.48;8.10;;;;;;;4.78;60.17;95260.13;4915731;23;20052;-80
2022/01/15 00:18:40;;;;;;;13.20;8.00;;;;;;;4.80;59.76;95257.34;4906013;29;20040;-81
2022/01/15 00:21:05;;;;;;;13.70;7.85;;;;;;;4.79;60.06;95253.19;4897435;29;20032;-81
2022/01/15 00:23:31;;;;;;;9.85;7.45;;;;;;;4.81;60.04;95252.03;4880866;29;20044;-80
2022/01/15 00:25:56;;;;;;;15.35;8.65;;;;;;;4.85;60.12;95249.06;4899425;29;20032;-81
2022/01/15 00:28:31;;;;;;;12.15;6.82;;;;;;;4.86;60.09;95264.34;4898930;29;20100;-80
2022/01/15 00:30:56;;;;;;;7.80;6.28;;;;;;;4.88;60.46;95269.31;4898772;29;20028;-80
2022/01/15 00:33:21;;;;;;;10.90;7.20;;;;;;;4.90;60.61;95277.69;4897540;29;20123;-80
2022/01/15 00:35:47;;;;;;;16.35;7.53;;;;;;;4.83;60.42;95273.25;4898004;29;20036;-80
2022/01/15 00:38:13;;;;;;;10.52;6.80;;;;;;;4.82;60.98;95271.66;4897951;29;20386;-80
2022/01/15 00:40:38;;;;;;;9.48;7.05;;;;;;;4.86;60.73;95271.28;4881173;29;20528;-81
2022/01/15 00:43:03;;;;;;;12.52;7.22;;;;;;;4.90;60.73;95272.53;4899014;29;20040;-80
2022/01/15 00:45:32;;;;;;;8.85;6.40;;;;;;;4.90;60.89;95282.81;4898427;29;20033;-81
2022/01/15 00:47:58;;;;;;;9.52;6.43;;;;;;;4.87;60.77;95285.75;4933624;23;21151;-80
2022/01/15 00:50:26;;;;;;;8.52;6.15;;;;;;;4.87;60.98;95283.19;4937090;29;20051;-81
2022/01/15 00:52:52;;;;;;;11.88;7.57;;;;;;;4.87;60.51;95288.31;4921499;29;20043;-81
2022/01/15 00:55:18;;;;;;;13.57;6.90;;;;;;;4.86;60.61;95279.00;4946464;23;20392;-81
2022/01/15 00:57:46;;;;;;;9.35;6.78;;;;;;;4.84;60.82;95274.03;4938557;23;20032;-81
2022/01/15 01:00:14;;;;;;;10.48;6.70;;;;;;;4.87;61.01;95272.88;4936241;29;20044;-81
2022/01/15 01:02:39;;;;;;;9.27;6.25;;;;;;;4.89;61.00;95276.09;4933370;29;20492;-79
2022/01/15 01:05:05;;;;;;;9.35;7.00;;;;;;;4.88;61.16;95270.13;4937065;29;20078;-80
2022/01/15 01:07:31;;;;;;;11.68;7.35;;;;;;;4.87;60.25;95263.34;4935679;29;20551;-81
2022/01/15 01:10:06;;;;;;;12.50;8.23;;;;;;;4.92;60.65;95271.34;5017066;23;20099;-81
2022/01/15 01:21:30;;;;;;;7.93;6.20;;;;;;;4.99;60.22;95267.03;4897990;29;20084;-81
2022/01/15 01:23:48;;;;;;;10.13;5.60;;;;;;;4.97;60.06;95263.06;4896587;29;20405;-80
2022/01/15 01:28:46;;;;;;;11.35;7.13;;;;;;;4.92;60.22;95260.25;5018081;23;20051;-81
2022/01/15 01:31:36;;;;;;;9.60;6.85;;;;;;;4.94;59.83;95259.06;4946974;23;20076;-79
2022/01/15 01:34:09;;;;;;;9.05;6.32;;;;;;;4.93;59.95;95257.47;4937290;29;20106;-80
2022/01/15 01:39:12;;;;;;;10.07;6.45;;;;;;;4.89;60.59;95255.47;4984137;23;20576;-80
2022/01/15 01:44:04;;;;;;;15.55;7.35;;;;;;;4.89;60.49;95253.69;4981198;23;20066;-81
2022/01/15 01:48:56;;;;;;;8.55;6.55;;;;;;;4.91;59.80;95253.50;4918324;29;20043;-80
2022/01/15 01:51:33;;;;;;;10.18;7.18;;;;;;;4.93;59.11;95248.94;4948443;23;20696;-80
2022/01/15 01:54:06;;;;;;;9.85;6.50;;;;;;;4.92;58.97;95240.44;4941928;29;20042;-79
2022/01/15 01:56:32;;;;;;;25.60;6.70;;;;;;;4.82;58.40;95248.47;4944568;29;20036;-79
2022/01/15 01:58:57;;;;;;;11.98;7.45;;;;;;;4.85;58.81;95249.88;4912798;29;20031;-79
2022/01/15 02:01:26;;;;;;;12.60;7.20;;;;;;;4.81;58.43;95243.50;4910686;29;20062;-80
2022/01/15 02:03:58;;;;;;;10.23;6.95;;;;;;;4.74;59.21;95246.03;5053231;23;20051;-79
2022/01/15 02:06:23;;;;;;;10.38;7.00;;;;;;;4.70;58.84;95242.19;4912848;29;20472;-80
2022/01/15 02:08:49;;;;;;;14.07;7.18;;;;;;;4.62;59.05;95244.91;5054737;23;20052;-78
2022/01/15 02:11:15;;;;;;;10.05;6.82;;;;;;;4.57;59.32;95236.94;4934437;29;20042;-79
2022/01/15 02:13:42;;;;;;;15.93;7.05;;;;;;;4.56;60.11;95245.66;4957200;23;20048;-79
2022/01/15 02:16:07;;;;;;;10.98;6.68;;;;;;;4.52;59.86;95244.41;4936387;29;20559;-79
2022/01/15 02:18:34;;;;;;;10.18;6.53;;;;;;;4.53;59.62;95235.69;4893941;29;20040;-79
2022/01/15 02:23:41;;;;;;;11.15;6.88;;;;;;;4.45;59.85;95225.53;4900837;29;20104;-79
2022/01/15 02:26:08;;;;;;;10.63;6.68;;;;;;;4.43;60.57;95227.50;4898115;29;20550;-79
2022/01/15 02:28:38;;;;;;;10.90;6.93;;;;;;;4.43;59.97;95236.03;4956085;23;20043;-79
2022/01/15 02:31:08;;;;;;;14.85;6.20;;;;;;;4.48;59.35;95232.88;4934754;29;20039;-80
2022/01/15 02:33:33;;;;;;;11.73;7.10;;;;;;;4.35;60.23;95241.28;4940584;29;20046;-80
2022/01/15 02:35:59;;;;;;;8.00;6.15;;;;;;;4.35;59.78;95232.75;4951104;28;20043;-78
2022/01/15 02:38:25;;;;;;;9.80;6.75;;;;;;;4.40;60.13;95230.44;4913012;29;20496;-78
2022/01/15 02:40:56;;;;;;;12.30;6.93;;;;;;;4.43;59.45;95245.53;4922744;29;20059;-80
2022/01/15 02:43:28;;;;;;;11.27;6.72;;;;;;;4.45;58.97;95248.72;4949632;29;20031;-80
2022/01/15 02:45:55;;;;;;;10.55;7.80;;;;;;;4.48;59.42;95256.88;4944288;29;20074;-78
2022/01/15 02:48:26;;;;;;;13.80;7.35;;;;;;;4.52;59.30;95265.00;4971693;23;20066;-78
2022/01/15 02:50:52;;;;;;;10.98;7.68;;;;;;;4.52;59.44;95260.66;4957274;29;20038;-79
2022/01/15 02:53:17;;;;;;;10.50;7.15;;;;;;;4.53;58.60;95257.09;4944160;28;20058;-79
2022/01/15 02:55:47;;;;;;;11.15;6.55;;;;;;;4.50;59.05;95254.09;4935995;28;20039;-78
2022/01/15 02:58:13;;;;;;;11.05;6.85;;;;;;;4.46;58.70;95260.59;4971114;28;20142;-78
2022/01/15 03:00:39;;;;;;;7.95;6.28;;;;;;;4.44;59.19;95267.72;4971866;28;20039;-79
2022/01/15 03:03:04;;;;;;;12.77;7.47;;;;;;;4.43;58.93;95260.97;4973109;28;20082;-81
2022/01/15 03:05:30;;;;;;;10.15;7.18;;;;;;;4.44;58.68;95263.38;4932302;28;20134;-81
2022/01/15 03:07:58;;;;;;;12.68;7.60;;;;;;;4.46;58.55;95255.47;4997190;23;20054;-81
2022/01/15 03:10:24;;;;;;;16.52;8.63;;;;;;;4.43;57.61;95250.69;4947566;23;20115;-79
2022/01/15 03:12:49;;;;;;;17.55;9.98;;;;;;;4.39;57.84;95275.16;4942146;29;20043;-80
2022/01/15 03:15:19;;;;;;;15.27;8.90;;;;;;;4.38;57.34;95258.94;4920979;29;20035;-81
2022/01/15 03:17:45;;;;;;;12.45;8.40;;;;;;;4.38;57.81;95269.22;4978414;23;20051;-80
2022/01/15 03:20:14;;;;;;;14.25;8.52;;;;;;;4.33;57.53;95245.00;4949484;29;20144;-79
2022/01/15 03:22:40;;;;;;;12.98;7.55;;;;;;;4.36;57.17;95244.66;4945111;29;20116;-80
2022/01/15 03:25:06;;;;;;;12.90;8.23;;;;;;;4.28;57.15;95234.47;5017091;23;20048;-80
2022/01/15 03:27:31;;;;;;;13.30;7.88;;;;;;;4.21;56.66;95263.50;4929487;29;20110;-80
2022/01/15 03:29:57;;;;;;;16.55;8.20;;;;;;;4.18;57.00;95256.16;4947842;29;20039;-79
2022/01/15 03:32:22;;;;;;;12.90;8.40;;;;;;;4.08;57.02;95253.06;4911818;29;20086;-79
2022/01/15 03:35:03;;;;;;;14.93;9.35;;;;;;;4.07;57.58;95266.94;4947860;29;20046;-78
2022/01/15 03:37:29;;;;;;;11.98;8.60;;;;;;;4.01;57.34;95267.63;4946040;29;20377;-79
2022/01/15 03:39:54;;;;;;;16.40;10.50;;;;;;;3.99;57.56;95276.50;4943613;23;20118;-80
2022/01/15 03:44:56;;;;;;;12.23;8.30;;;;;;;4.03;57.53;95288.03;4972748;23;20054;-80
2022/01/15 03:47:21;;;;;;;18.67;8.57;;;;;;;4.02;57.50;95289.81;4937402;29;20040;-80
2022/01/15 03:49:47;;;;;;;11.25;8.40;;;;;;;4.07;57.93;95291.84;4948059;29;20038;-80
2022/01/15 03:52:12;;;;;;;15.65;8.63;;;;;;;4.11;57.65;95285.38;4910293;29;20032;-79
2022/01/15 03:54:38;;;;;;;14.95;8.93;;;;;;;4.10;57.57;95287.16;4994070;23;20630;-79
2022/01/15 03:57:03;;;;;;;9.38;8.10;;;;;;;4.08;58.25;95293.47;4935035;29;20043;-80
2022/01/15 03:59:32;;;;;;;15.57;8.70;;;;;;;4.08;58.52;95299.41;4935820;29;20051;-81
2022/01/15 04:02:06;;;;;;;10.25;7.97;;;;;;;4.07;58.12;95295.22;4971009;23;20134;-81
2022/01/15 04:04:31;;;;;;;13.57;7.85;;;;;;;4.06;58.83;95296.19;4950200;23;20044;-81
2022/01/15 04:06:56;;;;;;;13.52;8.93;;;;;;;4.07;58.46;95294.44;4936490;29;20043;-81
2022/01/15 04:09:22;;;;;;;11.93;7.97;;;;;;;4.19;58.29;95306.63;4944834;29;20035;-81
2022/01/15 04:11:48;;;;;;;15.32;9.35;;;;;;;4.19;58.23;95321.28;4946210;29;20043;-81
2022/01/15 04:14:13;;;;;;;14.35;9.13;;;;;;;4.24;58.28;95318.19;4946459;29;20043;-81
2022/01/15 04:16:39;;;;;;;12.10;8.57;;;;;;;4.25;57.99;95314.66;4912055;29;20126;-80
2022/01/15 04:19:07;;;;;;;18.45;10.48;;;;;;;4.17;58.87;95329.19;4927751;29;20063;-81
2022/01/15 04:21:34;;;;;;;15.85;9.48;;;;;;;4.17;58.28;95342.06;4914242;23;20510;-79
2022/01/15 04:24:00;;;;;;;18.90;11.02;;;;;;;4.15;58.00;95341.44;4937888;29;20047;-80
2022/01/15 04:26:27;;;;;;;17.50;10.55;;;;;;;4.14;58.34;95344.19;4943612;29;20098;-81
2022/01/15 04:28:55;;;;;;;14.15;9.43;;;;;;;4.11;58.52;95349.72;4945494;29;20031;-81
2022/01/15 04:31:21;;;;;;;16.08;10.38;;;;;;;4.03;58.18;95354.94;4944216;29;20040;-81
2022/01/15 04:33:46;;;;;;;20.10;11.80;;;;;;;4.03;59.04;95354.94;4945243;29;20047;-81
2022/01/15 04:36:12;;;;;;;17.08;10.82;;;;;;;4.00;59.23;95337.28;4930131;29;20027;-81
2022/01/15 04:38:38;;;;;;;24.48;11.15;;;;;;;4.01;58.68;95349.97;4928140;29;20035;-80
2022/01/15 04:41:04;;;;;;;18.33;10.95;;;;;;;4.07;58.72;95338.97;4936271;29;20496;-81
2022/01/15 04:43:30;;;;;;;19.98;11.02;;;;;;;4.03;58.87;95337.72;4933835;23;20048;-81
2022/01/15 04:48:25;;;;;;;20.50;11.77;;;;;;;3.92;58.96;95345.91;4942063;23;20051;-81
2022/01/15 04:50:50;;;;;;;24.35;10.40;;;;;;;3.89;59.86;95353.94;4949304;23;20330;-80
2022/01/15 04:53:16;;;;;;;19.00;11.73;;;;;;;3.86;60.02;95359.44;4938846;29;20062;-79
2022/01/15 04:55:41;;;;;;;24.30;12.45;;;;;;;3.86;59.48;95356.88;4982311;23;20564;-80
2022/01/15 04:58:10;;;;;;;20.35;12.93;;;;;;;3.82;59.97;95361.59;4942547;23;20469;-80
2022/01/15 05:00:41;;;;;;;18.42;11.27;;;;;;;3.81;60.55;95364.34;4944696;23;20106;-80
2022/01/15 05:03:07;;;;;;;20.50;13.10;;;;;;;3.77;60.59;95357.94;4936987;29;20047;-80
2022/01/15 05:05:32;;;;;;;27.70;14.25;;;;;;;3.78;60.61;95359.53;4916858;29;20280;-81
2022/01/15 05:07:57;;;;;;;22.98;14.07;;;;;;;3.82;60.50;95365.94;4935972;29;20035;-82
2022/01/15 05:10:27;;;;;;;19.75;12.93;;;;;;;3.87;60.81;95373.91;4983933;23;20094;-82
2022/01/15 05:12:56;;;;;;;20.75;12.88;;;;;;;3.90;60.97;95379.53;4937375;29;20046;-81
2022/01/15 05:15:24;;;;;;;20.05;12.38;;;;;;;3.91;60.69;95375.19;4942437;29;20031;-82
2022/01/15 05:17:51;;;;;;;21.02;13.40;;;;;;;3.91;61.15;95385.47;4959289;23;20051;-82
2022/01/15 05:20:17;;;;;;;22.55;13.27;;;;;;;3.97;60.97;95382.19;4936997;29;20031;-81
2022/01/15 05:22:46;;;;;;;28.83;16.27;;;;;;;4.01;60.89;95386.00;4919768;29;20095;-82
2022/01/15 05:25:16;;;;;;;19.85;13.23;;;;;;;3.97;60.39;95382.19;4915253;29;20518;-82
2022/01/15 05:27:42;;;;;;;25.83;14.93;;;;;;;3.93;60.59;95388.66;4935445;29;20036;-81
2022/01/15 05:30:08;;;;;;;21.25;12.00;;;;;;;3.90;60.88;95400.09;4919007;29;20028;-80
2022/01/15 05:32:34;;;;;;;23.00;13.10;;;;;;;3.80;61.19;95394.41;4918497;29;20040;-81
2022/01/15 05:35:00;;;;;;;24.55;13.05;;;;;;;3.80;61.45;95406.47;4902094;29;20055;-81
2022/01/15 05:37:28;;;;;;;21.98;13.48;;;;;;;3.74;61.34;95397.69;4935693;29;20055;-82
2022/01/15 05:39:54;;;;;;;21.25;13.27;;;;;;;3.76;61.84;95403.44;4935046;29;20042;-82
2022/01/15 05:42:19;;;;;;;21.10;12.95;;;;;;;3.78;61.47;95405.84;4938993;23;20032;-81
2022/01/15 05:44:45;;;;;;;22.25;14.50;;;;;;;3.74;61.60;95404.56;4937771;23;20052;-80
2022/01/15 05:47:10;;;;;;;31.42;14.27;;;;;;;3.71;61.34;95403.16;4935623;29;20035;-81
2022/01/15 05:49:36;;;;;;;23.83;14.02;;;;;;;3.70;61.80;95413.63;4918563;29;20034;-81
2022/01/15 05:52:02;;;;;;;25.25;14.43;;;;;;;3.64;62.27;95415.13;4917745;29;20051;-82
2022/01/15 05:54:33;;;;;;;33.38;16.30;;;;;;;3.63;61.88;95423.81;4936165;29;20024;-81
2022/01/15 05:57:05;;;;;;;24.58;13.98;;;;;;;3.62;61.93;95417.06;4935721;29;20094;-81
2022/01/15 05:59:30;;;;;;;27.80;15.63;;;;;;;3.65;62.46;95424.44;4936386;29;20099;-81
2022/01/15 06:01:56;;;;;;;26.25;16.42;;;;;;;3.67;62.33;95426.84;4935478;29;20035;-80
2022/01/15 06:04:21;;;;;;;26.15;13.38;;;;;;;3.73;62.14;95442.34;4935946;29;20396;-80
2022/01/15 06:09:22;;;;;;;21.83;14.73;;;;;;;3.75;62.26;95437.06;4778386;27;20491;-81
2022/01/15 06:11:47;;;;;;;26.15;14.57;;;;;;;3.78;62.42;95452.94;4948214;29;20031;-78
2022/01/15 06:14:13;;;;;;;19.95;13.35;;;;;;;3.77;62.13;95448.78;4947088;29;20044;-79
2022/01/15 06:17:17;;;;;;;28.02;17.10;;;;;;;3.80;62.05;95455.34;4947329;29;20554;-79
2022/01/15 06:19:42;;;;;;;21.67;13.38;;;;;;;3.78;61.88;95454.72;4913827;29;20046;-81
2022/01/15 06:22:11;;;;;;;29.42;18.73;;;;;;;3.75;62.21;95457.66;4950950;29;20044;-78
2022/01/15 06:24:49;;;;;;;26.40;15.70;;;;;;;3.72;61.85;95448.47;4964453;29;20043;-78
2022/01/15 06:29:43;;;;;;;31.65;18.35;;;;;;;3.74;62.52;95443.16;4964225;23;20048;-77
2022/01/15 06:32:09;;;;;;;35.47;19.95;;;;;;;3.80;62.35;95445.06;4935379;29;20054;-78
2022/01/15 06:34:34;;;;;;;28.05;16.17;;;;;;;3.93;61.36;95455.56;4935391;29;20040;-77
2022/01/15 06:37:00;;;;;;;32.10;18.80;;;;;;;4.06;61.55;95466.03;4934094;29;20058;-78
2022/01/15 06:39:25;;;;;;;31.95;16.75;;;;;;;4.26;60.99;95465.53;4935128;29;20531;-78
2022/01/15 06:41:50;;;;;;;33.60;17.83;;;;;;;4.55;59.89;95480.97;4938080;29;20050;-78
2022/01/15 06:44:16;;;;;;;36.03;18.73;;;;;;;4.86;59.26;95473.06;4933865;29;20058;-79
2022/01/15 06:46:41;;;;;;;26.83;15.85;;;;;;;5.23;58.40;95477.28;4937148;29;20381;-77
2022/01/15 06:49:07;;;;;;;28.80;16.33;;;;;;;5.52;56.43;95475.56;4936581;29;20380;-79
2022/01/15 06:51:38;;;;;;;26.55;14.93;;;;;;;5.69;56.54;95484.66;4937195;29;20043;-79
2022/01/15 06:54:04;;;;;;;55.57;23.20;;;;;;;5.82;55.40;95483.97;4938181;29;20031;-79
2022/01/15 06:56:32;;;;;;;76.63;32.75;;;;;;;5.86;55.03;95478.28;4937009;29;20027;-79
2022/01/15 06:58:59;;;;;;;48.72;26.30;;;;;;;5.94;55.46;95485.91;4937379;29;20043;-78
2022/01/15 07:01:24;;;;;;;34.42;19.42;;;;;;;6.01;54.98;95489.31;4918228;29;20088;-78
2022/01/15 07:03:49;;;;;;;37.15;19.92;;;;;;;6.15;55.00;95484.25;4937116;29;20536;-79
2022/01/15 07:06:15;;;;;;;24.42;16.40;;;;;;;6.08;54.40;95489.41;4937317;29;20036;-79
2022/01/15 07:08:40;;;;;;;27.92;17.60;;;;;;;6.01;55.17;95489.31;4920173;29;20031;-79
2022/01/15 07:11:06;;;;;;;25.10;15.93;;;;;;;5.82;55.29;95495.09;4920195;29;20044;-79
2022/01/15 07:13:33;;;;;;;47.33;24.88;;;;;;;5.70;56.06;95501.75;4920010;29;20067;-79
2022/01/15 07:15:58;;;;;;;29.70;16.20;;;;;;;5.62;55.59;95505.25;4937125;29;20484;-79
2022/01/15 07:18:24;;;;;;;25.27;16.48;;;;;;;5.51;56.40;95507.50;4904341;29;20082;-79
2022/01/15 07:21:49;;;;;;;26.77;16.35;;;;;;;5.33;56.51;95503.53;4902322;29;20066;-78
2022/01/15 07:24:17;;;;;;;29.35;15.23;;;;;;;5.14;57.79;95517.00;4923734;29;20039;-78
2022/01/15 07:26:43;;;;;;;25.27;15.02;;;;;;;5.05;58.14;95512.97;4935345;29;20035;-78
2022/01/15 07:29:14;;;;;;;32.47;16.83;;;;;;;4.97;58.08;95521.56;4916349;29;20517;-77
2022/01/15 07:31:40;;;;;;;27.17;16.05;;;;;;;4.99;58.14;95531.69;4901739;29;20040;-77
2022/01/15 07:34:06;;;;;;;22.83;15.43;;;;;;;5.05;58.37;95534.38;4934106;29;20062;-78
2022/01/15 07:36:31;;;;;;;32.08;15.18;;;;;;;5.20;57.71;95541.25;4934294;29;20036;-78
2022/01/15 07:38:57;;;;;;;32.55;20.10;;;;;;;5.36;57.34;95544.44;4916777;29;20031;-78
2022/01/15 07:41:22;;;;;;;31.23;18.15;;;;;;;5.47;56.66;95558.66;4901183;29;20040;-77
2022/01/15 07:43:48;;;;;;;29.60;17.17;;;;;;;5.47;56.71;95543.19;4933645;29;20032;-77
2022/01/15 07:46:13;;;;;;;24.70;16.92;;;;;;;5.51;56.57;95544.41;4917556;29;20419;-78
2022/01/15 07:48:38;;;;;;;37.90;22.85;;;;;;;5.65;56.84;95535.03;4918753;29;20027;-79
2022/01/15 07:51:13;;;;;;;28.92;16.70;;;;;;;5.73;56.26;95537.50;4920260;29;20051;-79
2022/01/15 07:53:38;;;;;;;25.48;15.75;;;;;;;5.75;56.77;95556.19;4918599;23;20497;-79
2022/01/15 07:56:04;;;;;;;25.02;16.02;;;;;;;5.82;55.78;95548.50;4928665;29;20032;-79
2022/01/15 07:58:32;;;;;;;35.90;20.58;;;;;;;5.80;56.06;95551.25;4911116;29;20063;-79
2022/01/15 08:03:25;;;;;;;30.60;18.20;;;;;;;5.87;55.98;95556.50;4956371;23;20047;-79
2022/01/15 08:05:52;;;;;;;29.13;16.98;;;;;;;5.84;55.50;95556.84;4946730;29;20114;-78
2022/01/15 08:08:18;;;;;;;33.78;19.05;;;;;;;5.88;55.23;95560.69;4945736;29;20376;-79
2022/01/15 08:10:44;;;;;;;32.42;16.52;;;;;;;5.80;55.80;95550.47;4956749;23;20555;-79
2022/01/15 08:13:10;;;;;;;41.72;23.48;;;;;;;5.75;55.96;95560.53;4939706;29;20055;-78
2022/01/15 08:15:35;;;;;;;34.60;21.13;;;;;;;5.67;56.02;95579.50;4926536;29;20583;-77
2022/01/15 08:18:03;;;;;;;43.75;25.92;;;;;;;5.62;55.51;95581.84;4946101;29;20110;-77
2022/01/15 08:20:28;;;;;;;28.02;16.65;;;;;;;5.50;56.40;95593.59;4945837;29;20027;-78
2022/01/15 08:22:57;;;;;;;25.45;16.13;;;;;;;5.41;56.50;95585.97;4943802;29;20039;-80
2022/01/15 08:25:24;;;;;;;35.38;16.55;;;;;;;5.40;56.00;95584.38;4912727;29;20039;-80
2022/01/15 08:27:49;;;;;;;23.10;14.65;;;;;;;5.41;56.06;95585.97;4929261;29;20031;-80
2022/01/15 08:30:15;;;;;;;24.65;14.13;;;;;;;5.32;56.10;95586.25;4930951;29;20044;-80
2022/01/15 08:32:41;;;;;;;22.20;13.23;;;;;;;5.29;56.29;95582.25;4912331;29;20035;-79
2022/01/15 08:35:07;;;;;;;20.80;14.35;;;;;;;5.27;57.25;95594.53;4947055;29;20075;-80
2022/01/15 08:37:34;;;;;;;25.38;14.02;;;;;;;5.32;56.32;95597.34;4911354;29;20035;-77
2022/01/15 08:39:59;;;;;;;35.42;14.60;;;;;;;5.34;57.21;95590.25;4943738;29;20047;-77
2022/01/15 08:42:24;;;;;;;32.83;21.58;;;;;;;5.39;56.47;95598.25;4941910;29;20031;-77
2022/01/15 08:44:52;;;;;;;30.30;18.17;;;;;;;5.41;55.82;95608.41;4929882;29;20105;-78
2022/01/15 08:47:18;;;;;;;41.35;24.00;;;;;;;5.57;56.71;95615.13;4912049;29;20039;-85
2022/01/15 08:49:43;;;;;;;37.17;21.27;;;;;;;5.71;56.03;95614.31;4895118;29;20031;-79
2022/01/15 08:52:09;;;;;;;33.33;17.05;;;;;;;5.83;55.35;95619.78;4944716;29;20059;-77
2022/01/15 08:54:34;;;;;;;29.13;18.00;;;;;;;5.85;55.47;95623.75;4943538;29;20099;-79
2022/01/15 08:57:00;;;;;;;33.38;18.48;;;;;;;5.89;54.72;95619.84;4896091;29;20563;-77
2022/01/15 08:59:27;;;;;;;30.48;19.08;;;;;;;5.93;54.23;95621.13;4912149;29;20028;-79
2022/01/15 09:01:56;;;;;;;23.77;15.48;;;;;;;5.96;54.84;95636.22;4942811;29;20070;-79
2022/01/15 09:04:24;;;;;;;34.42;20.98;;;;;;;6.10;54.46;95626.03;4911957;29;20051;-78
2022/01/15 09:06:50;;;;;;;24.70;16.80;;;;;;;6.11;54.14;95628.44;4927028;29;20122;-77
2022/01/15 09:09:15;;;;;;;36.38;20.40;;;;;;;6.17;54.18;95626.91;4896102;29;20058;-80
2022/01/15 09:11:44;;;;;;;23.83;13.68;;;;;;;6.12;53.19;95618.91;4912409;29;20038;-79
2022/01/15 09:14:11;;;;;;;22.35;12.48;;;;;;;6.15;53.85;95632.25;4913454;29;20255;-78
2022/01/15 09:16:37;;;;;;;36.80;17.08;;;;;;;6.09;52.98;95629.63;4927805;29;20411;-78
2022/01/15 09:19:02;;;;;;;20.48;12.25;;;;;;;5.95;53.06;95624.31;4911063;29;20052;-79
2022/01/15 09:21:28;;;;;;;18.35;12.48;;;;;;;5.81;53.68;95637.22;4914349;29;20058;-78
2022/01/15 09:23:53;;;;;;;24.15;14.68;;;;;;;5.75;53.92;95641.34;4912309;29;20094;-79
2022/01/15 09:26:46;;;;;;;20.73;12.88;;;;;;;5.80;53.32;95643.38;4897159;29;20051;-78
2022/01/15 09:31:51;;;;;;;34.13;19.25;;;;;;;5.90;53.71;95641.34;4932299;29;20559;-79
2022/01/15 09:34:18;;;;;;;45.33;24.05;;;;;;;5.98;53.52;95623.94;4927995;29;20031;-79
2022/01/15 09:36:44;;;;;;;25.75;15.75;;;;;;;5.98;52.69;95623.94;4896507;29;20091;-79
2022/01/15 09:39:09;;;;;;;46.78;23.48;;;;;;;5.97;52.59;95621.53;4910746;29;20435;-78
2022/01/15 09:41:35;;;;;;;35.67;18.20;;;;;;;5.94;52.51;95620.13;4926187;29;20036;-79
2022/01/15 09:44:00;;;;;;;25.30;14.10;;;;;;;5.98;52.38;95605.88;4909820;29;20155;-78
2022/01/15 09:46:26;;;;;;;23.67;15.32;;;;;;;6.03;52.22;95610.50;4915661;29;20035;-77
2022/01/15 09:48:51;;;;;;;26.83;15.05;;;;;;;5.97;51.84;95611.22;4927511;29;20485;-76
2022/01/15 09:51:17;;;;;;;25.05;15.40;;;;;;;5.97;52.27;95600.88;4927806;29;20051;-77
2022/01/15 09:53:43;;;;;;;24.25;13.32;;;;;;;5.93;51.48;95594.50;4928925;29;20039;-77
2022/01/15 09:56:09;;;;;;;41.15;16.38;;;;;;;5.95;51.94;95613.97;4928432;29;20048;-79
2022/01/15 09:58:35;;;;;;;30.33;17.40;;;;;;;6.08;52.06;95615.09;4916713;29;20126;-78
2022/01/15 10:01:01;;;;;;;48.92;21.55;;;;;;;6.24;51.68;95607.13;4914501;29;20515;-78
2022/01/15 10:03:29;;;;;;;21.38;13.48;;;;;;;6.31;50.29;95615.72;4916544;29;20034;-78
2022/01/15 10:05:55;;;;;;;17.75;11.65;;;;;;;6.24;50.46;95614.88;4930554;29;20039;-78
2022/01/15 10:08:20;;;;;;;28.70;14.80;;;;;;;6.22;50.47;95611.66;4897672;29;20046;-77
2022/01/15 10:10:50;;;;;;;30.75;13.35;;;;;;;6.17;49.99;95621.72;4946161;29;20031;-79
2022/01/15 10:13:20;;;;;;;21.08;12.57;;;;;;;6.09;50.28;95619.28;4947592;29;20032;-79
2022/01/15 10:16:09;;;;;;;25.80;14.63;;;;;;;6.00;50.71;95611.66;4931418;29;20042;-81
2022/01/15 10:18:44;;;;;;;24.85;14.27;;;;;;;6.04;54.17;95621.63;4942506;29;20043;-80
2022/01/15 10:21:17;;;;;;;33.42;18.83;;;;;;;6.15;54.12;95608.22;4912062;29;20050;-82
2022/01/15 10:23:51;;;;;;;21.75;12.55;;;;;;;6.29;53.79;95600.41;4939308;29;20039;-81
2022/01/15 10:26:21;;;;;;;22.48;12.30;;;;;;;6.46;54.14;95606.09;4946364;29;20036;-86
2022/01/15 10:29:07;;;;;;;23.30;13.45;;;;;;;6.75;64.01;95591.41;4911720;29;20048;-86
2022/01/15 10:31:35;;;;;;;31.33;17.58;;;;;;;6.98;53.12;95598.91;4940070;29;20054;-85
2022/01/15 10:34:24;;;;;;;31.48;15.90;;;;;;;7.03;52.05;95592.19;4940235;29;20038;-86
2022/01/15 10:36:50;;;;;;;52.25;25.73;;;;;;;7.06;51.63;95585.84;4960100;29;20039;-85
2022/01/15 10:39:17;;;;;;;22.42;13.32;;;;;;;7.09;58.73;95591.44;4937354;29;20087;-87
2022/01/15 10:41:43;;;;;;;35.45;18.52;;;;;;;7.21;57.87;95584.75;4916521;29;20039;-83
2022/01/15 10:44:34;;;;;;;23.13;12.73;;;;;;;7.81;60.44;95580.59;4934239;29;20062;-81
2022/01/15 10:48:09;;;;;;;18.83;11.05;;;;;;;8.19;48.65;95587.03;4917893;29;20055;-83
2022/01/15 10:50:38;;;;;;;15.82;10.50;;;;;;;7.92;47.49;95599.13;4920927;29;20495;-85
2022/01/15 10:53:09;;;;;;;24.90;11.38;;;;;;;7.75;48.13;95596.88;4920769;29;20059;-81
2022/01/15 10:55:40;;;;;;;17.67;12.07;;;;;;;7.66;49.07;95587.72;4904334;29;20098;-79
2022/01/15 10:58:17;;;;;;;;;;;;;;;;;;;;;
2022/01/15 11:00:46;;;;;;;24.27;12.90;;;;;;;7.40;48.54;95582.44;4951108;29;20114;-82
2022/01/15 11:03:13;;;;;;;25.55;13.52;;;;;;;7.52;49.77;95591.25;4951511;29;20091;-83
2022/01/15 11:05:59;;;;;;;25.80;14.90;;;;;;;7.44;47.85;95593.97;4936327;29;20118;-81
2022/01/15 11:08:26;;;;;;;16.50;10.57;;;;;;;7.41;49.31;95596.97;4933905;29;20086;-82
2022/01/15 11:10:56;;;;;;;17.88;12.10;;;;;;;7.30;49.34;95581.97;4919041;29;20043;-82
2022/01/15 11:13:42;;;;;;;23.40;14.40;;;;;;;7.18;48.66;95590.28;4919233;29;20043;-82
2022/01/15 11:16:10;;;;;;;32.60;17.50;;;;;;;7.22;47.77;95599.25;4952226;29;20027;-77
2022/01/15 11:18:43;;;;;;;31.33;16.60;;;;;;;7.33;47.24;95597.13;4947874;29;20047;-80
2022/01/15 11:21:15;;;;;;;21.80;13.98;;;;;;;7.37;47.05;95603.53;4918238;29;20119;-79
2022/01/15 11:23:41;;;;;;;26.15;15.18;;;;;;;7.41;46.89;95589.19;4901615;29;20416;-80
2022/01/15 11:26:10;;;;;;;24.50;13.80;;;;;;;7.45;47.14;95586.03;4948936;29;20048;-79
2022/01/15 11:28:36;;;;;;;30.52;18.20;;;;;;;7.45;47.10;95585.22;4930547;29;20098;-79
2022/01/15 11:31:06;;;;;;;19.88;12.35;;;;;;;7.36;46.68;95586.41;4932717;29;20032;-82
2022/01/15 11:33:42;;;;;;;25.67;13.18;;;;;;;7.26;47.01;95578.19;4935094;29;20038;-82
2022/01/15 11:36:08;;;;;;;21.08;9.90;;;;;;;7.06;47.57;95576.31;4937253;29;20044;-77
2022/01/15 11:38:46;;;;;;;15.40;10.80;;;;;;;7.06;47.68;95576.31;4951685;29;20032;-78
2022/01/15 11:41:32;;;;;;;23.05;13.32;;;;;;;7.08;47.94;95578.69;4926912;29;20071;-77
2022/01/15 11:44:01;;;;;;;28.58;13.40;;;;;;;7.09;47.48;95573.31;4935839;29;20047;-82
2022/01/15 11:46:28;;;;;;;20.85;13.05;;;;;;;7.04;47.09;95565.34;4899625;29;20023;-82
2022/01/15 11:49:28;;;;;;;16.00;10.18;;;;;;;7.03;47.22;95571.50;4912771;29;20042;-81
2022/01/15 11:52:10;;;;;;;22.92;10.82;;;;;;;7.03;47.29;95576.69;4946417;29;20122;-79
2022/01/15 11:54:37;;;;;;;15.48;9.35;;;;;;;6.89;46.73;95569.84;4933645;29;20109;-81
2022/01/15 11:57:03;;;;;;;15.70;10.45;;;;;;;6.80;47.00;95574.34;4930572;29;20039;-80
2022/01/15 11:59:28;;;;;;;14.00;10.15;;;;;;;6.70;47.10;95575.69;4914139;29;20118;-80
2022/01/15 12:01:57;;;;;;;14.70;8.90;;;;;;;6.59;47.80;95570.03;4949269;29;20062;-79
2022/01/15 12:04:33;;;;;;;14.52;9.57;;;;;;;6.56;47.95;95567.84;4932381;29;20168;-80
2022/01/15 12:07:07;;;;;;;20.30;10.27;;;;;;;6.55;48.45;95568.81;4912149;29;20036;-80
2022/01/15 12:09:37;;;;;;;15.45;10.25;;;;;;;6.55;48.42;95566.25;4948029;29;20102;-80
2022/01/15 12:12:30;;;;;;;20.10;11.63;;;;;;;6.50;48.26;95576.31;4930456;29;20043;-80